sensor_id;sensor_type;location;lat;lon;timestamp;P1;durP1;ratioP1;P2;durP2;ratioP2
11533;SDS011;5823;50.588;8.462;2023-04-21T00:01:12;0.88;;;0.85;;
11533;SDS011;5823;50.588;8.462;2023-04-21T00:03:38;0.85;;;0.82;;
11533;SDS011;5823;50.588;8.462;2023-04-21T00:06:05;0.80;;;0.80;;
11533;SDS011;5823;50.588;8.462;2023-04-21T00:08:33;0.70;;;0.70;;
11533;SDS011;5823;50.588;8.462;2023-04-21T00:11:05;1.00;;;0.90;;
11533;SDS011;5823;50.588;8.462;2023-04-21T00:13:31;1.00;;;1.00;;
11533;SDS011;5823;50.588;8.462;2023-04-21T00:15:58;0.80;;;0.80;;
11533;SDS011;5823;50.588;8.462;2023-04-21T00:18:24;0.80;;;0.80;;
11533;SDS011;5823;50.588;8.462;2023-04-21T00:20:51;0.80;;;0.80;;
11533;SDS011;5823;50.588;8.462;2023-04-21T00:23:18;0.93;;;0.85;;
11533;SDS011;5823;50.588;8.462;2023-04-21T00:25:44;0.85;;;0.77;;
11533;SDS011;5823;50.588;8.462;2023-04-21T00:28:12;1.08;;;0.98;;
11533;SDS011;5823;50.588;8.462;2023-04-21T00:30:38;1.40;;;1.27;;
11533;SDS011;5823;50.588;8.462;2023-04-21T00:33:05;0.82;;;0.82;;
11533;SDS011;5823;50.588;8.462;2023-04-21T00:35:31;0.82;;;0.82;;
11533;SDS011;5823;50.588;8.462;2023-04-21T00:37:57;1.15;;;1.05;;
11533;SDS011;5823;50.588;8.462;2023-04-21T00:40:23;1.00;;;0.90;;
11533;SDS011;5823;50.588;8.462;2023-04-21T00:42:49;1.08;;;0.80;;
11533;SDS011;5823;50.588;8.462;2023-04-21T00:45:17;1.00;;;0.93;;
11533;SDS011;5823;50.588;8.462;2023-04-21T00:47:43;1.10;;;1.00;;
11533;SDS011;5823;50.588;8.462;2023-04-21T00:50:10;1.20;;;1.10;;
11533;SDS011;5823;50.588;8.462;2023-04-21T00:52:38;1.13;;;1.02;;
11533;SDS011;5823;50.588;8.462;2023-04-21T00:55:04;1.23;;;1.13;;
11533;SDS011;5823;50.588;8.462;2023-04-21T00:57:32;0.85;;;0.85;;
11533;SDS011;5823;50.588;8.462;2023-04-21T01:00:01;1.10;;;0.90;;
11533;SDS011;5823;50.588;8.462;2023-04-21T01:02:30;0.90;;;0.88;;
11533;SDS011;5823;50.588;8.462;2023-04-21T01:04:56;1.10;;;1.00;;
11533;SDS011;5823;50.588;8.462;2023-04-21T01:07:23;0.80;;;0.80;;
11533;SDS011;5823;50.588;8.462;2023-04-21T01:09:50;0.90;;;0.80;;
11533;SDS011;5823;50.588;8.462;2023-04-21T01:12:16;0.70;;;0.68;;
11533;SDS011;5823;50.588;8.462;2023-04-21T01:14:42;0.85;;;0.85;;
11533;SDS011;5823;50.588;8.462;2023-04-21T01:17:08;0.98;;;0.95;;
11533;SDS011;5823;50.588;8.462;2023-04-21T01:19:37;1.10;;;1.00;;
11533;SDS011;5823;50.588;8.462;2023-04-21T01:22:05;1.08;;;0.98;;
11533;SDS011;5823;50.588;8.462;2023-04-21T01:24:35;0.90;;;0.90;;
11533;SDS011;5823;50.588;8.462;2023-04-21T01:27:01;1.05;;;0.98;;
11533;SDS011;5823;50.588;8.462;2023-04-21T01:29:30;1.10;;;1.00;;
11533;SDS011;5823;50.588;8.462;2023-04-21T01:31:57;0.80;;;0.80;;
11533;SDS011;5823;50.588;8.462;2023-04-21T01:34:23;1.00;;;0.93;;
11533;SDS011;5823;50.588;8.462;2023-04-21T01:36:49;0.68;;;0.68;;
11533;SDS011;5823;50.588;8.462;2023-04-21T01:39:17;0.77;;;0.75;;
11533;SDS011;5823;50.588;8.462;2023-04-21T01:41:43;0.60;;;0.60;;
11533;SDS011;5823;50.588;8.462;2023-04-21T01:44:09;0.75;;;0.75;;
11533;SDS011;5823;50.588;8.462;2023-04-21T01:46:35;1.10;;;1.00;;
11533;SDS011;5823;50.588;8.462;2023-04-21T01:49:02;0.60;;;0.60;;
11533;SDS011;5823;50.588;8.462;2023-04-21T01:51:28;1.30;;;1.10;;
11533;SDS011;5823;50.588;8.462;2023-04-21T01:53:55;0.88;;;0.82;;
11533;SDS011;5823;50.588;8.462;2023-04-21T01:56:22;1.13;;;1.02;;
11533;SDS011;5823;50.588;8.462;2023-04-21T01:58:49;1.10;;;1.00;;
11533;SDS011;5823;50.588;8.462;2023-04-21T02:01:17;0.95;;;0.93;;
11533;SDS011;5823;50.588;8.462;2023-04-21T02:03:43;1.02;;;0.95;;
11533;SDS011;5823;50.588;8.462;2023-04-21T02:06:10;0.70;;;0.70;;
11533;SDS011;5823;50.588;8.462;2023-04-21T02:08:37;0.90;;;0.90;;
11533;SDS011;5823;50.588;8.462;2023-04-21T02:11:04;0.85;;;0.80;;
11533;SDS011;5823;50.588;8.462;2023-04-21T02:13:31;0.85;;;0.85;;
11533;SDS011;5823;50.588;8.462;2023-04-21T02:15:58;0.70;;;0.70;;
11533;SDS011;5823;50.588;8.462;2023-04-21T02:18:24;0.52;;;0.52;;
11533;SDS011;5823;50.588;8.462;2023-04-21T02:20:53;0.70;;;0.70;;
11533;SDS011;5823;50.588;8.462;2023-04-21T02:23:20;1.08;;;1.02;;
11533;SDS011;5823;50.588;8.462;2023-04-21T02:25:46;0.80;;;0.80;;
11533;SDS011;5823;50.588;8.462;2023-04-21T02:28:12;0.95;;;0.90;;
11533;SDS011;5823;50.588;8.462;2023-04-21T02:30:40;1.05;;;1.00;;
11533;SDS011;5823;50.588;8.462;2023-04-21T02:33:06;0.63;;;0.63;;
11533;SDS011;5823;50.588;8.462;2023-04-21T02:35:32;0.60;;;0.60;;
11533;SDS011;5823;50.588;8.462;2023-04-21T02:37:59;0.70;;;0.70;;
11533;SDS011;5823;50.588;8.462;2023-04-21T02:40:30;0.80;;;0.80;;
11533;SDS011;5823;50.588;8.462;2023-04-21T02:42:56;0.70;;;0.70;;
11533;SDS011;5823;50.588;8.462;2023-04-21T02:45:22;1.02;;;1.00;;
11533;SDS011;5823;50.588;8.462;2023-04-21T02:47:50;1.10;;;1.00;;
11533;SDS011;5823;50.588;8.462;2023-04-21T02:50:17;0.98;;;0.98;;
11533;SDS011;5823;50.588;8.462;2023-04-21T02:52:43;0.90;;;0.90;;
11533;SDS011;5823;50.588;8.462;2023-04-21T02:55:09;1.08;;;0.98;;
11533;SDS011;5823;50.588;8.462;2023-04-21T02:57:35;1.10;;;1.00;;
11533;SDS011;5823;50.588;8.462;2023-04-21T03:00:02;0.95;;;0.95;;
11533;SDS011;5823;50.588;8.462;2023-04-21T03:02:29;0.60;;;0.60;;
11533;SDS011;5823;50.588;8.462;2023-04-21T03:04:56;0.65;;;0.65;;
11533;SDS011;5823;50.588;8.462;2023-04-21T03:07:23;0.80;;;0.80;;
11533;SDS011;5823;50.588;8.462;2023-04-21T03:09:49;0.90;;;0.90;;
11533;SDS011;5823;50.588;8.462;2023-04-21T03:12:15;1.20;;;1.10;;
11533;SDS011;5823;50.588;8.462;2023-04-21T03:14:42;0.70;;;0.70;;
11533;SDS011;5823;50.588;8.462;2023-04-21T03:17:08;1.25;;;1.02;;
11533;SDS011;5823;50.588;8.462;2023-04-21T03:19:34;1.20;;;1.10;;
11533;SDS011;5823;50.588;8.462;2023-04-21T03:22:02;1.08;;;1.00;;
11533;SDS011;5823;50.588;8.462;2023-04-21T03:24:28;1.30;;;1.10;;
11533;SDS011;5823;50.588;8.462;2023-04-21T03:26:55;1.08;;;0.98;;
11533;SDS011;5823;50.588;8.462;2023-04-21T03:29:21;1.10;;;1.00;;
11533;SDS011;5823;50.588;8.462;2023-04-21T03:31:47;0.93;;;0.82;;
11533;SDS011;5823;50.588;8.462;2023-04-21T03:34:14;0.68;;;0.68;;
11533;SDS011;5823;50.588;8.462;2023-04-21T03:36:40;1.38;;;1.27;;
11533;SDS011;5823;50.588;8.462;2023-04-21T03:39:08;1.35;;;1.25;;
11533;SDS011;5823;50.588;8.462;2023-04-21T03:41:34;1.38;;;1.27;;
11533;SDS011;5823;50.588;8.462;2023-04-21T03:44:00;1.25;;;1.15;;
11533;SDS011;5823;50.588;8.462;2023-04-21T03:46:26;1.23;;;1.10;;
11533;SDS011;5823;50.588;8.462;2023-04-21T03:48:53;0.93;;;0.93;;
11533;SDS011;5823;50.588;8.462;2023-04-21T03:51:19;0.98;;;0.88;;
11533;SDS011;5823;50.588;8.462;2023-04-21T03:53:45;0.90;;;0.90;;
11533;SDS011;5823;50.588;8.462;2023-04-21T03:56:13;0.80;;;0.80;;
11533;SDS011;5823;50.588;8.462;2023-04-21T03:58:39;0.85;;;0.85;;
11533;SDS011;5823;50.588;8.462;2023-04-21T04:01:05;1.02;;;1.00;;
11533;SDS011;5823;50.588;8.462;2023-04-21T04:03:32;0.75;;;0.75;;
11533;SDS011;5823;50.588;8.462;2023-04-21T04:05:58;0.45;;;0.45;;
11533;SDS011;5823;50.588;8.462;2023-04-21T04:08:24;0.77;;;0.77;;
11533;SDS011;5823;50.588;8.462;2023-04-21T04:10:50;0.68;;;0.65;;
11533;SDS011;5823;50.588;8.462;2023-04-21T04:13:18;0.68;;;0.68;;
11533;SDS011;5823;50.588;8.462;2023-04-21T04:15:46;0.88;;;0.88;;
11533;SDS011;5823;50.588;8.462;2023-04-21T04:18:12;1.10;;;1.00;;
11533;SDS011;5823;50.588;8.462;2023-04-21T04:20:39;1.23;;;1.13;;
11533;SDS011;5823;50.588;8.462;2023-04-21T04:23:05;1.27;;;1.17;;
11533;SDS011;5823;50.588;8.462;2023-04-21T04:25:31;0.93;;;0.90;;
11533;SDS011;5823;50.588;8.462;2023-04-21T04:27:58;1.00;;;1.00;;
11533;SDS011;5823;50.588;8.462;2023-04-21T04:30:26;0.90;;;0.90;;
11533;SDS011;5823;50.588;8.462;2023-04-21T04:32:52;1.50;;;1.40;;
11533;SDS011;5823;50.588;8.462;2023-04-21T04:35:19;1.10;;;1.00;;
11533;SDS011;5823;50.588;8.462;2023-04-21T04:37:45;1.20;;;1.10;;
11533;SDS011;5823;50.588;8.462;2023-04-21T04:40:12;1.05;;;0.95;;
11533;SDS011;5823;50.588;8.462;2023-04-21T04:42:39;0.80;;;0.80;;
11533;SDS011;5823;50.588;8.462;2023-04-21T04:45:06;1.30;;;1.10;;
11533;SDS011;5823;50.588;8.462;2023-04-21T04:47:34;1.08;;;0.98;;
11533;SDS011;5823;50.588;8.462;2023-04-21T04:50:00;0.90;;;0.90;;
11533;SDS011;5823;50.588;8.462;2023-04-21T04:52:27;0.85;;;0.80;;
11533;SDS011;5823;50.588;8.462;2023-04-21T04:54:53;1.23;;;1.13;;
11533;SDS011;5823;50.588;8.462;2023-04-21T04:57:19;1.00;;;1.00;;
11533;SDS011;5823;50.588;8.462;2023-04-21T04:59:45;1.17;;;0.98;;
11533;SDS011;5823;50.588;8.462;2023-04-21T05:02:12;0.95;;;0.88;;
11533;SDS011;5823;50.588;8.462;2023-04-21T05:04:39;0.90;;;0.90;;
11533;SDS011;5823;50.588;8.462;2023-04-21T05:07:06;1.10;;;1.00;;
11533;SDS011;5823;50.588;8.462;2023-04-21T05:09:32;1.10;;;1.00;;
11533;SDS011;5823;50.588;8.462;2023-04-21T05:11:58;1.10;;;1.00;;
11533;SDS011;5823;50.588;8.462;2023-04-21T05:14:25;0.85;;;0.85;;
11533;SDS011;5823;50.588;8.462;2023-04-21T05:16:51;0.90;;;0.85;;
11533;SDS011;5823;50.588;8.462;2023-04-21T05:19:17;1.27;;;1.10;;
11533;SDS011;5823;50.588;8.462;2023-04-21T05:21:45;1.08;;;1.00;;
11533;SDS011;5823;50.588;8.462;2023-04-21T05:24:11;0.90;;;0.85;;
11533;SDS011;5823;50.588;8.462;2023-04-21T05:26:37;1.20;;;1.10;;
11533;SDS011;5823;50.588;8.462;2023-04-21T05:29:04;0.88;;;0.85;;
11533;SDS011;5823;50.588;8.462;2023-04-21T05:31:30;1.00;;;0.98;;
11533;SDS011;5823;50.588;8.462;2023-04-21T05:33:57;0.80;;;0.80;;
11533;SDS011;5823;50.588;8.462;2023-04-21T05:36:23;0.70;;;0.70;;
11533;SDS011;5823;50.588;8.462;2023-04-21T05:38:51;0.73;;;0.73;;
11533;SDS011;5823;50.588;8.462;2023-04-21T05:41:18;0.70;;;0.70;;
11533;SDS011;5823;50.588;8.462;2023-04-21T05:43:45;1.10;;;1.00;;
11533;SDS011;5823;50.588;8.462;2023-04-21T05:46:12;1.30;;;1.20;;
11533;SDS011;5823;50.588;8.462;2023-04-21T05:48:38;0.77;;;0.77;;
11533;SDS011;5823;50.588;8.462;2023-04-21T05:51:08;1.30;;;1.17;;
11533;SDS011;5823;50.588;8.462;2023-04-21T05:53:35;1.10;;;1.00;;
11533;SDS011;5823;50.588;8.462;2023-04-21T05:56:03;1.05;;;0.95;;
11533;SDS011;5823;50.588;8.462;2023-04-21T05:58:29;0.70;;;0.68;;
11533;SDS011;5823;50.588;8.462;2023-04-21T06:00:56;0.80;;;0.80;;
11533;SDS011;5823;50.588;8.462;2023-04-21T06:03:22;0.82;;;0.82;;
11533;SDS011;5823;50.588;8.462;2023-04-21T06:05:52;1.20;;;1.10;;
11533;SDS011;5823;50.588;8.462;2023-04-21T06:08:18;1.13;;;1.08;;
11533;SDS011;5823;50.588;8.462;2023-04-21T06:10:44;1.55;;;1.20;;
11533;SDS011;5823;50.588;8.462;2023-04-21T06:13:12;1.35;;;1.20;;
11533;SDS011;5823;50.588;8.462;2023-04-21T06:15:38;1.33;;;1.23;;
11533;SDS011;5823;50.588;8.462;2023-04-21T06:18:04;1.08;;;0.98;;
11533;SDS011;5823;50.588;8.462;2023-04-21T06:20:31;0.80;;;0.80;;
11533;SDS011;5823;50.588;8.462;2023-04-21T06:22:57;1.08;;;0.98;;
11533;SDS011;5823;50.588;8.462;2023-04-21T06:25:23;1.20;;;1.10;;
11533;SDS011;5823;50.588;8.462;2023-04-21T06:27:49;0.88;;;0.88;;
11533;SDS011;5823;50.588;8.462;2023-04-21T06:30:17;0.80;;;0.80;;
11533;SDS011;5823;50.588;8.462;2023-04-21T06:32:43;0.90;;;0.90;;
11533;SDS011;5823;50.588;8.462;2023-04-21T06:35:10;0.80;;;0.80;;
11533;SDS011;5823;50.588;8.462;2023-04-21T06:37:38;0.90;;;0.70;;
11533;SDS011;5823;50.588;8.462;2023-04-21T06:40:04;0.80;;;0.80;;
11533;SDS011;5823;50.588;8.462;2023-04-21T06:42:31;1.00;;;0.93;;
11533;SDS011;5823;50.588;8.462;2023-04-21T06:44:57;1.05;;;0.95;;
11533;SDS011;5823;50.588;8.462;2023-04-21T06:47:25;0.80;;;0.80;;
11533;SDS011;5823;50.588;8.462;2023-04-21T06:49:51;1.08;;;1.00;;
11533;SDS011;5823;50.588;8.462;2023-04-21T06:52:17;0.93;;;0.88;;
11533;SDS011;5823;50.588;8.462;2023-04-21T06:54:43;0.88;;;0.88;;
11533;SDS011;5823;50.588;8.462;2023-04-21T06:57:10;0.90;;;0.90;;
11533;SDS011;5823;50.588;8.462;2023-04-21T06:59:36;0.98;;;0.93;;
11533;SDS011;5823;50.588;8.462;2023-04-21T07:02:02;0.90;;;0.90;;
11533;SDS011;5823;50.588;8.462;2023-04-21T07:04:30;0.90;;;0.90;;
11533;SDS011;5823;50.588;8.462;2023-04-21T07:06:56;0.75;;;0.75;;
11533;SDS011;5823;50.588;8.462;2023-04-21T07:09:22;1.00;;;0.90;;
11533;SDS011;5823;50.588;8.462;2023-04-21T07:11:48;0.88;;;0.80;;
11533;SDS011;5823;50.588;8.462;2023-04-21T07:14:15;0.80;;;0.80;;
11533;SDS011;5823;50.588;8.462;2023-04-21T07:16:41;0.80;;;0.80;;
11533;SDS011;5823;50.588;8.462;2023-04-21T07:19:07;0.80;;;0.80;;
11533;SDS011;5823;50.588;8.462;2023-04-21T07:21:35;0.77;;;0.77;;
11533;SDS011;5823;50.588;8.462;2023-04-21T07:24:01;0.80;;;0.80;;
11533;SDS011;5823;50.588;8.462;2023-04-21T07:26:27;0.82;;;0.82;;
11533;SDS011;5823;50.588;8.462;2023-04-21T07:28:54;1.23;;;1.13;;
11533;SDS011;5823;50.588;8.462;2023-04-21T07:31:22;0.80;;;0.80;;
11533;SDS011;5823;50.588;8.462;2023-04-21T07:33:48;1.05;;;0.95;;
11533;SDS011;5823;50.588;8.462;2023-04-21T07:36:14;0.93;;;0.90;;
11533;SDS011;5823;50.588;8.462;2023-04-21T07:38:42;0.82;;;0.82;;
11533;SDS011;5823;50.588;8.462;2023-04-21T07:41:09;1.13;;;1.02;;
11533;SDS011;5823;50.588;8.462;2023-04-21T07:43:35;1.00;;;0.90;;
11533;SDS011;5823;50.588;8.462;2023-04-21T07:46:01;1.08;;;0.98;;
11533;SDS011;5823;50.588;8.462;2023-04-21T07:48:28;1.33;;;1.10;;
11533;SDS011;5823;50.588;8.462;2023-04-21T07:50:54;0.70;;;0.70;;
11533;SDS011;5823;50.588;8.462;2023-04-21T07:53:22;0.80;;;0.80;;
11533;SDS011;5823;50.588;8.462;2023-04-21T07:55:49;0.80;;;0.80;;
11533;SDS011;5823;50.588;8.462;2023-04-21T07:58:16;1.15;;;1.08;;
11533;SDS011;5823;50.588;8.462;2023-04-21T08:00:42;1.10;;;1.00;;
11533;SDS011;5823;50.588;8.462;2023-04-21T08:03:08;1.08;;;0.98;;
11533;SDS011;5823;50.588;8.462;2023-04-21T08:05:35;0.80;;;0.80;;
11533;SDS011;5823;50.588;8.462;2023-04-21T08:08:01;1.08;;;0.98;;
11533;SDS011;5823;50.588;8.462;2023-04-21T08:10:27;1.20;;;1.10;;
11533;SDS011;5823;50.588;8.462;2023-04-21T08:12:55;1.23;;;1.13;;
11533;SDS011;5823;50.588;8.462;2023-04-21T08:15:21;1.10;;;1.00;;
11533;SDS011;5823;50.588;8.462;2023-04-21T08:17:47;1.13;;;1.02;;
11533;SDS011;5823;50.588;8.462;2023-04-21T08:20:14;0.90;;;0.90;;
11533;SDS011;5823;50.588;8.462;2023-04-21T08:22:40;1.10;;;1.00;;
11533;SDS011;5823;50.588;8.462;2023-04-21T08:25:06;1.30;;;1.20;;
11533;SDS011;5823;50.588;8.462;2023-04-21T08:27:33;1.00;;;0.95;;
11533;SDS011;5823;50.588;8.462;2023-04-21T08:30:04;1.40;;;1.30;;
11533;SDS011;5823;50.588;8.462;2023-04-21T08:32:30;1.10;;;1.00;;
11533;SDS011;5823;50.588;8.462;2023-04-21T08:34:56;0.95;;;0.77;;
11533;SDS011;5823;50.588;8.462;2023-04-21T08:37:23;1.05;;;1.02;;
11533;SDS011;5823;50.588;8.462;2023-04-21T08:39:49;1.15;;;1.05;;
11533;SDS011;5823;50.588;8.462;2023-04-21T08:42:15;1.17;;;0.95;;
11533;SDS011;5823;50.588;8.462;2023-04-21T08:44:42;1.05;;;0.95;;
11533;SDS011;5823;50.588;8.462;2023-04-21T08:47:10;1.13;;;1.02;;
11533;SDS011;5823;50.588;8.462;2023-04-21T08:49:36;0.90;;;0.90;;
11533;SDS011;5823;50.588;8.462;2023-04-21T08:52:03;1.60;;;1.50;;
11533;SDS011;5823;50.588;8.462;2023-04-21T08:54:29;1.40;;;1.30;;
11533;SDS011;5823;50.588;8.462;2023-04-21T08:56:56;1.30;;;1.20;;
11533;SDS011;5823;50.588;8.462;2023-04-21T08:59:22;1.45;;;1.27;;
11533;SDS011;5823;50.588;8.462;2023-04-21T09:02:05;1.25;;;1.02;;
11533;SDS011;5823;50.588;8.462;2023-04-21T09:04:32;1.35;;;1.25;;
11533;SDS011;5823;50.588;8.462;2023-04-21T09:06:59;0.98;;;0.98;;
11533;SDS011;5823;50.588;8.462;2023-04-21T09:09:25;0.90;;;0.90;;
11533;SDS011;5823;50.588;8.462;2023-04-21T09:11:53;0.90;;;0.90;;
11533;SDS011;5823;50.588;8.462;2023-04-21T09:14:19;1.70;;;1.55;;
11533;SDS011;5823;50.588;8.462;2023-04-21T09:16:45;1.40;;;1.30;;
11533;SDS011;5823;50.588;8.462;2023-04-21T09:19:25;1.20;;;1.10;;
11533;SDS011;5823;50.588;8.462;2023-04-21T09:21:52;1.33;;;1.23;;
11533;SDS011;5823;50.588;8.462;2023-04-21T09:24:19;1.50;;;1.40;;
11533;SDS011;5823;50.588;8.462;2023-04-21T09:26:48;1.80;;;1.70;;
11533;SDS011;5823;50.588;8.462;2023-04-21T09:29:14;1.90;;;1.67;;
11533;SDS011;5823;50.588;8.462;2023-04-21T09:31:41;1.88;;;1.77;;
11533;SDS011;5823;50.588;8.462;2023-04-21T09:34:15;1.55;;;1.42;;
11533;SDS011;5823;50.588;8.462;2023-04-21T09:36:43;1.40;;;1.27;;
11533;SDS011;5823;50.588;8.462;2023-04-21T09:39:11;1.27;;;1.17;;
11533;SDS011;5823;50.588;8.462;2023-04-21T09:41:38;1.70;;;1.60;;
11533;SDS011;5823;50.588;8.462;2023-04-21T09:44:04;1.20;;;1.10;;
11533;SDS011;5823;50.588;8.462;2023-04-21T09:46:31;1.20;;;1.10;;
11533;SDS011;5823;50.588;8.462;2023-04-21T09:48:58;1.05;;;1.00;;
11533;SDS011;5823;50.588;8.462;2023-04-21T09:51:25;1.30;;;1.20;;
11533;SDS011;5823;50.588;8.462;2023-04-21T09:53:52;1.20;;;1.10;;
11533;SDS011;5823;50.588;8.462;2023-04-21T09:56:20;1.15;;;0.95;;
11533;SDS011;5823;50.588;8.462;2023-04-21T09:58:47;1.35;;;1.20;;
11533;SDS011;5823;50.588;8.462;2023-04-21T10:01:16;1.42;;;1.33;;
11533;SDS011;5823;50.588;8.462;2023-04-21T10:03:44;1.20;;;1.10;;
11533;SDS011;5823;50.588;8.462;2023-04-21T10:06:12;1.30;;;1.20;;
11533;SDS011;5823;50.588;8.462;2023-04-21T10:08:38;1.50;;;1.30;;
11533;SDS011;5823;50.588;8.462;2023-04-21T10:11:05;1.20;;;1.10;;
11533;SDS011;5823;50.588;8.462;2023-04-21T10:13:33;1.80;;;1.63;;
11533;SDS011;5823;50.588;8.462;2023-04-21T10:16:00;1.35;;;1.25;;
11533;SDS011;5823;50.588;8.462;2023-04-21T10:18:27;3.05;;;1.73;;
11533;SDS011;5823;50.588;8.462;2023-04-21T10:20:55;2.30;;;2.10;;
11533;SDS011;5823;50.588;8.462;2023-04-21T10:23:25;2.30;;;2.10;;
11533;SDS011;5823;50.588;8.462;2023-04-21T10:25:51;1.90;;;1.80;;
11533;SDS011;5823;50.588;8.462;2023-04-21T10:28:17;2.20;;;1.95;;
11533;SDS011;5823;50.588;8.462;2023-04-21T10:30:45;1.90;;;1.60;;
11533;SDS011;5823;50.588;8.462;2023-04-21T10:33:11;1.80;;;1.70;;
11533;SDS011;5823;50.588;8.462;2023-04-21T10:35:56;2.20;;;1.83;;
11533;SDS011;5823;50.588;8.462;2023-04-21T10:38:32;1.95;;;1.63;;
11533;SDS011;5823;50.588;8.462;2023-04-21T10:41:07;1.42;;;1.33;;
11533;SDS011;5823;50.588;8.462;2023-04-21T10:43:40;1.35;;;1.25;;
11533;SDS011;5823;50.588;8.462;2023-04-21T10:48:52;1.00;;;0.98;;
11533;SDS011;5823;50.588;8.462;2023-04-21T10:51:18;1.83;;;1.73;;
11533;SDS011;5823;50.588;8.462;2023-04-21T10:53:47;1.50;;;1.40;;
11533;SDS011;5823;50.588;8.462;2023-04-21T10:56:13;1.58;;;1.48;;
11533;SDS011;5823;50.588;8.462;2023-04-21T10:58:40;1.70;;;1.60;;
11533;SDS011;5823;50.588;8.462;2023-04-21T11:01:06;1.70;;;1.60;;
11533;SDS011;5823;50.588;8.462;2023-04-21T11:03:32;2.70;;;2.50;;
11533;SDS011;5823;50.588;8.462;2023-04-21T11:06:08;2.88;;;2.63;;
11533;SDS011;5823;50.588;8.462;2023-04-21T11:08:53;2.38;;;2.17;;
11533;SDS011;5823;50.588;8.462;2023-04-21T11:11:20;2.38;;;2.17;;
11533;SDS011;5823;50.588;8.462;2023-04-21T11:13:47;2.90;;;2.55;;
11533;SDS011;5823;50.588;8.462;2023-04-21T11:16:13;2.10;;;1.90;;
11533;SDS011;5823;50.588;8.462;2023-04-21T11:18:40;1.67;;;1.58;;
11533;SDS011;5823;50.588;8.462;2023-04-21T11:21:08;1.70;;;1.60;;
11533;SDS011;5823;50.588;8.462;2023-04-21T11:23:37;1.50;;;1.40;;
11533;SDS011;5823;50.588;8.462;2023-04-21T11:26:04;1.52;;;1.40;;
11533;SDS011;5823;50.588;8.462;2023-04-21T11:28:30;1.92;;;1.83;;
11533;SDS011;5823;50.588;8.462;2023-04-21T11:30:56;2.53;;;2.17;;
11533;SDS011;5823;50.588;8.462;2023-04-21T11:33:23;2.10;;;1.90;;
11533;SDS011;5823;50.588;8.462;2023-04-21T11:35:50;2.22;;;2.03;;
11533;SDS011;5823;50.588;8.462;2023-04-21T11:38:24;2.55;;;2.35;;
11533;SDS011;5823;50.588;8.462;2023-04-21T11:40:50;1.90;;;1.77;;
11533;SDS011;5823;50.588;8.462;2023-04-21T11:43:17;2.63;;;2.42;;
11533;SDS011;5823;50.588;8.462;2023-04-21T11:45:47;2.45;;;1.73;;
11533;SDS011;5823;50.588;8.462;2023-04-21T11:48:13;2.28;;;1.80;;
11533;SDS011;5823;50.588;8.462;2023-04-21T11:50:40;2.63;;;2.42;;
11533;SDS011;5823;50.588;8.462;2023-04-21T11:53:12;2.88;;;2.40;;
11533;SDS011;5823;50.588;8.462;2023-04-21T11:55:41;2.08;;;1.95;;
11533;SDS011;5823;50.588;8.462;2023-04-21T11:58:08;2.05;;;1.83;;
11533;SDS011;5823;50.588;8.462;2023-04-21T12:00:36;2.10;;;1.90;;
11533;SDS011;5823;50.588;8.462;2023-04-21T12:03:02;2.45;;;2.25;;
11533;SDS011;5823;50.588;8.462;2023-04-21T12:05:33;1.92;;;1.80;;
11533;SDS011;5823;50.588;8.462;2023-04-21T12:08:00;1.48;;;1.30;;
11533;SDS011;5823;50.588;8.462;2023-04-21T12:10:26;1.67;;;1.58;;
11533;SDS011;5823;50.588;8.462;2023-04-21T12:12:55;1.80;;;1.70;;
11533;SDS011;5823;50.588;8.462;2023-04-21T12:15:21;1.63;;;1.52;;
11533;SDS011;5823;50.588;8.462;2023-04-21T12:17:48;1.88;;;1.65;;
11533;SDS011;5823;50.588;8.462;2023-04-21T12:20:15;1.50;;;1.40;;
11533;SDS011;5823;50.588;8.462;2023-04-21T12:22:42;2.05;;;1.90;;
11533;SDS011;5823;50.588;8.462;2023-04-21T12:25:08;1.60;;;1.50;;
11533;SDS011;5823;50.588;8.462;2023-04-21T12:27:34;1.40;;;1.30;;
11533;SDS011;5823;50.588;8.462;2023-04-21T12:30:02;1.60;;;1.50;;
11533;SDS011;5823;50.588;8.462;2023-04-21T12:32:29;1.40;;;1.13;;
11533;SDS011;5823;50.588;8.462;2023-04-21T12:34:55;2.10;;;1.90;;
11533;SDS011;5823;50.588;8.462;2023-04-21T12:37:21;1.88;;;1.75;;
11533;SDS011;5823;50.588;8.462;2023-04-21T12:39:47;1.40;;;1.30;;
11533;SDS011;5823;50.588;8.462;2023-04-21T12:42:14;2.53;;;1.50;;
11533;SDS011;5823;50.588;8.462;2023-04-21T12:44:40;1.40;;;1.30;;
11533;SDS011;5823;50.588;8.462;2023-04-21T12:47:08;1.30;;;1.20;;
11533;SDS011;5823;50.588;8.462;2023-04-21T12:49:34;0.77;;;0.77;;
11533;SDS011;5823;50.588;8.462;2023-04-21T12:52:00;0.90;;;0.90;;
11533;SDS011;5823;50.588;8.462;2023-04-21T12:54:29;1.15;;;1.10;;
11533;SDS011;5823;50.588;8.462;2023-04-21T12:56:55;0.77;;;0.77;;
11533;SDS011;5823;50.588;8.462;2023-04-21T12:59:22;1.02;;;1.00;;
11533;SDS011;5823;50.588;8.462;2023-04-21T13:01:49;1.13;;;1.10;;
11533;SDS011;5823;50.588;8.462;2023-04-21T13:04:16;0.90;;;0.90;;
11533;SDS011;5823;50.588;8.462;2023-04-21T13:06:42;1.10;;;0.90;;
11533;SDS011;5823;50.588;8.462;2023-04-21T13:09:09;1.52;;;1.42;;
11533;SDS011;5823;50.588;8.462;2023-04-21T13:11:36;1.33;;;1.23;;
11533;SDS011;5823;50.588;8.462;2023-04-21T13:14:03;1.35;;;1.25;;
11533;SDS011;5823;50.588;8.462;2023-04-21T13:16:29;1.15;;;1.05;;
11533;SDS011;5823;50.588;8.462;2023-04-21T13:18:56;1.30;;;1.20;;
11533;SDS011;5823;50.588;8.462;2023-04-21T13:21:23;1.90;;;1.80;;
11533;SDS011;5823;50.588;8.462;2023-04-21T13:23:50;1.77;;;1.67;;
11533;SDS011;5823;50.588;8.462;2023-04-21T13:26:17;2.30;;;2.10;;
11533;SDS011;5823;50.588;8.462;2023-04-21T13:28:43;2.20;;;2.00;;
11533;SDS011;5823;50.588;8.462;2023-04-21T13:31:09;2.28;;;2.08;;
11533;SDS011;5823;50.588;8.462;2023-04-21T13:33:36;2.20;;;2.00;;
11533;SDS011;5823;50.588;8.462;2023-04-21T13:36:02;1.42;;;1.33;;
11533;SDS011;5823;50.588;8.462;2023-04-21T13:38:30;1.77;;;1.27;;
11533;SDS011;5823;50.588;8.462;2023-04-21T13:40:57;0.98;;;0.93;;
11533;SDS011;5823;50.588;8.462;2023-04-21T13:43:23;1.17;;;1.10;;
11533;SDS011;5823;50.588;8.462;2023-04-21T13:45:49;1.30;;;1.20;;
11533;SDS011;5823;50.588;8.462;2023-04-21T13:48:16;1.17;;;1.10;;
11533;SDS011;5823;50.588;8.462;2023-04-21T13:50:42;1.20;;;1.10;;
11533;SDS011;5823;50.588;8.462;2023-04-21T13:53:08;0.90;;;0.85;;
11533;SDS011;5823;50.588;8.462;2023-04-21T13:55:36;0.70;;;0.70;;
11533;SDS011;5823;50.588;8.462;2023-04-21T13:58:03;0.95;;;0.95;;
11533;SDS011;5823;50.588;8.462;2023-04-21T14:00:30;1.00;;;0.90;;
11533;SDS011;5823;50.588;8.462;2023-04-21T14:02:56;0.80;;;0.80;;
11533;SDS011;5823;50.588;8.462;2023-04-21T14:05:23;0.65;;;0.65;;
11533;SDS011;5823;50.588;8.462;2023-04-21T14:07:49;1.25;;;1.13;;
11533;SDS011;5823;50.588;8.462;2023-04-21T14:10:15;1.25;;;1.15;;
11533;SDS011;5823;50.588;8.462;2023-04-21T14:12:43;1.20;;;1.10;;
11533;SDS011;5823;50.588;8.462;2023-04-21T14:15:10;1.40;;;1.00;;
11533;SDS011;5823;50.588;8.462;2023-04-21T14:17:36;0.88;;;0.88;;
11533;SDS011;5823;50.588;8.462;2023-04-21T14:20:03;1.05;;;1.00;;
11533;SDS011;5823;50.588;8.462;2023-04-21T14:22:29;0.82;;;0.82;;
11533;SDS011;5823;50.588;8.462;2023-04-21T14:24:55;0.88;;;0.88;;
11533;SDS011;5823;50.588;8.462;2023-04-21T14:27:21;1.10;;;1.00;;
11533;SDS011;5823;50.588;8.462;2023-04-21T14:29:49;1.38;;;1.27;;
11533;SDS011;5823;50.588;8.462;2023-04-21T14:32:15;1.67;;;1.58;;
11533;SDS011;5823;50.588;8.462;2023-04-21T14:34:44;1.50;;;1.40;;
11533;SDS011;5823;50.588;8.462;2023-04-21T14:37:10;1.80;;;1.70;;
11533;SDS011;5823;50.588;8.462;2023-04-21T14:39:37;2.15;;;1.95;;
11533;SDS011;5823;50.588;8.462;2023-04-21T14:42:03;1.77;;;1.67;;
11533;SDS011;5823;50.588;8.462;2023-04-21T14:44:30;1.90;;;1.80;;
11533;SDS011;5823;50.588;8.462;2023-04-21T14:46:57;1.80;;;1.70;;
11533;SDS011;5823;50.588;8.462;2023-04-21T14:49:23;1.38;;;1.27;;
11533;SDS011;5823;50.588;8.462;2023-04-21T14:51:50;1.35;;;1.25;;
11533;SDS011;5823;50.588;8.462;2023-04-21T14:54:16;1.77;;;1.67;;
11533;SDS011;5823;50.588;8.462;2023-04-21T14:56:42;1.50;;;1.40;;
11533;SDS011;5823;50.588;8.462;2023-04-21T14:59:08;1.23;;;1.13;;
11533;SDS011;5823;50.588;8.462;2023-04-21T15:01:35;1.35;;;1.17;;